createdAt,value
2023-04-16T00:01:01.077Z,73.58
2023-04-16T00:03:27.744Z,72.97
2023-04-16T00:05:55.953Z,72.74
2023-04-16T00:08:22.517Z,73.15
2023-04-16T00:10:48.978Z,72.77
2023-04-16T00:13:15.391Z,72.50
2023-04-16T00:15:41.856Z,72.56
2023-04-16T00:18:08.298Z,73.24
2023-04-16T00:20:34.704Z,72.88
2023-04-16T00:23:02.515Z,72.64
2023-04-16T00:25:28.945Z,72.44
2023-04-16T00:27:55.431Z,72.86
2023-04-16T00:30:22.034Z,73.92
2023-04-16T00:32:48.548Z,74.39
2023-04-16T00:35:15.021Z,73.92
2023-04-16T00:37:41.683Z,73.42
2023-04-16T00:40:10.733Z,73.33
2023-04-16T00:42:37.166Z,74.00
2023-04-16T00:45:03.921Z,73.75
2023-04-16T00:47:30.851Z,74.10
2023-04-16T00:49:57.359Z,74.42
2023-04-16T00:52:23.777Z,73.54
2023-04-16T00:54:50.280Z,73.56
2023-04-16T00:57:18.076Z,74.14
2023-04-16T00:59:44.552Z,73.65
2023-04-16T01:02:11.163Z,73.68
2023-04-16T01:04:37.724Z,73.58
2023-04-16T01:07:04.375Z,74.32
2023-04-16T01:09:30.873Z,73.72
2023-04-16T01:11:57.318Z,73.60
2023-04-16T01:14:25.185Z,73.28
2023-04-16T01:16:51.626Z,74.03
2023-04-16T01:19:18.082Z,73.41
2023-04-16T01:21:45.896Z,74.16
2023-04-16T01:24:12.361Z,74.15
2023-04-16T01:26:38.779Z,73.62
2023-04-16T01:29:05.264Z,73.38
2023-04-16T01:31:31.732Z,73.17
2023-04-16T01:33:58.235Z,72.74
2023-04-16T01:36:24.693Z,73.48
2023-04-16T01:38:52.580Z,72.90
2023-04-16T01:41:19.108Z,72.27
2023-04-16T01:43:45.525Z,72.38
2023-04-16T01:46:12.791Z,73.25
2023-04-16T01:48:39.250Z,73.67
2023-04-16T01:51:05.720Z,73.32
2023-04-16T01:53:32.559Z,73.29
2023-04-16T01:56:00.362Z,73.87
2023-04-16T01:58:28.033Z,73.11
2023-04-16T02:00:54.485Z,73.87
2023-04-16T02:03:21.070Z,73.34
2023-04-16T02:05:47.616Z,73.50
2023-04-16T02:08:14.052Z,72.73
2023-04-16T02:10:40.542Z,73.15
2023-04-16T02:13:08.363Z,74.61
2023-04-16T02:15:34.801Z,74.68
2023-04-16T02:18:01.313Z,74.34
2023-04-16T02:20:27.827Z,74.18
2023-04-16T02:22:54.315Z,73.42
2023-04-16T02:25:20.741Z,73.16
2023-04-16T02:27:47.340Z,73.05
2023-04-16T02:30:15.132Z,72.89
2023-04-16T02:32:41.607Z,73.14
2023-04-16T02:35:08.148Z,72.88
2023-04-16T02:37:34.621Z,72.43
2023-04-16T02:40:01.104Z,72.75
2023-04-16T02:42:27.538Z,72.77
2023-04-16T02:44:54.002Z,73.31
2023-04-16T02:47:21.843Z,73.35
2023-04-16T02:49:48.350Z,73.89
2023-04-16T02:52:15.711Z,74.24
2023-04-16T02:54:42.235Z,74.12
2023-04-16T02:57:08.678Z,73.42
2023-04-16T02:59:35.268Z,72.64
2023-04-16T03:02:01.756Z,72.25
2023-04-16T03:04:29.619Z,72.00
2023-04-16T03:06:56.112Z,72.02
2023-04-16T03:09:22.591Z,71.92
2023-04-16T03:11:49.066Z,71.62
2023-04-16T03:14:15.551Z,71.51
2023-04-16T03:16:41.974Z,72.43
2023-04-16T03:19:08.702Z,72.76
2023-04-16T03:21:36.743Z,72.34
2023-04-16T03:24:03.296Z,72.15
2023-04-16T03:26:29.768Z,71.71
2023-04-16T03:28:56.285Z,71.11
2023-04-16T03:31:23.798Z,71.47
2023-04-16T03:33:50.322Z,71.89
2023-04-16T03:36:16.808Z,72.06
2023-04-16T03:38:44.628Z,71.80
2023-04-16T03:41:11.093Z,71.82
2023-04-16T03:43:37.583Z,71.93
2023-04-16T03:46:04.069Z,72.22
2023-04-16T03:48:30.516Z,72.23
2023-04-16T03:50:57.008Z,72.35
2023-04-16T03:53:23.441Z,72.18
2023-04-16T03:55:51.329Z,73.08
2023-04-16T03:58:17.866Z,72.46
2023-04-16T04:00:44.415Z,72.77
2023-04-16T04:03:11.029Z,73.69
2023-04-16T04:05:37.759Z,73.98
2023-04-16T04:08:04.393Z,74.47
2023-04-16T04:10:31.762Z,74.04
2023-04-16T04:12:59.604Z,75.15
2023-04-16T04:15:26.084Z,75.50
2023-04-16T04:17:52.557Z,75.13
2023-04-16T04:20:19.042Z,74.54
2023-04-16T04:22:45.513Z,74.12
2023-04-16T04:25:11.961Z,73.90
2023-04-16T04:27:38.406Z,73.26
2023-04-16T04:30:07.146Z,73.32
2023-04-16T04:32:33.649Z,73.31
2023-04-16T04:35:00.909Z,72.59
2023-04-16T04:37:27.364Z,72.68
2023-04-16T04:39:53.845Z,72.78
2023-04-16T04:42:20.562Z,72.92
2023-04-16T04:44:47.132Z,72.02
2023-04-16T04:47:15.040Z,72.70
2023-04-16T04:49:41.490Z,72.57
2023-04-16T04:52:07.968Z,72.40
2023-04-16T04:54:34.473Z,72.15
2023-04-16T04:57:00.900Z,72.06
2023-04-16T04:59:27.388Z,72.75
2023-04-16T05:01:53.877Z,72.61
2023-04-16T05:04:22.053Z,72.71
2023-04-16T05:06:48.477Z,73.59
2023-04-16T05:09:14.983Z,73.51
2023-04-16T05:11:41.830Z,73.75
2023-04-16T05:14:08.288Z,73.56
2023-04-16T05:16:36.066Z,73.21
2023-04-16T05:19:02.563Z,72.82
2023-04-16T05:21:30.412Z,72.72
2023-04-16T05:23:56.859Z,72.04
2023-04-16T05:26:23.303Z,71.85
2023-04-16T05:28:49.762Z,72.11
2023-04-16T05:31:16.384Z,73.35
2023-04-16T05:33:42.936Z,74.06
2023-04-16T05:36:09.370Z,74.19
2023-04-16T05:38:37.232Z,73.22
2023-04-16T05:41:03.682Z,73.11
2023-04-16T05:43:30.175Z,73.79
2023-04-16T05:45:56.599Z,73.71
2023-04-16T05:48:23.133Z,73.69
2023-04-16T05:50:49.589Z,73.68
2023-04-16T05:53:16.076Z,74.56
2023-04-16T05:55:43.956Z,74.22
2023-04-16T05:58:10.387Z,73.14
2023-04-16T06:00:36.827Z,74.11
2023-04-16T06:03:03.460Z,73.62
2023-04-16T06:05:30.157Z,73.12
2023-04-16T06:07:56.664Z,73.31
2023-04-16T06:10:23.276Z,73.73
2023-04-16T06:12:51.138Z,73.13
2023-04-16T06:15:17.638Z,72.90
2023-04-16T06:17:44.176Z,73.06
2023-04-16T06:20:11.596Z,72.79
2023-04-16T06:22:38.015Z,72.24
2023-04-16T06:25:04.854Z,72.24
2023-04-16T06:27:31.338Z,71.99
2023-04-16T06:29:59.214Z,71.67
2023-04-16T06:32:25.720Z,72.07
2023-04-16T06:34:52.155Z,71.83
2023-04-16T06:37:18.603Z,71.82
2023-04-16T06:39:45.073Z,71.45
2023-04-16T06:42:11.504Z,71.46
2023-04-16T06:44:37.986Z,71.52
2023-04-16T06:47:05.897Z,72.58
2023-04-16T06:49:32.506Z,72.17
2023-04-16T06:51:58.992Z,72.31
2023-04-16T06:54:25.519Z,72.66
2023-04-16T06:56:51.959Z,71.86
2023-04-16T06:59:18.584Z,72.13
2023-04-16T07:01:45.136Z,72.38
2023-04-16T07:04:13.286Z,71.21
2023-04-16T07:06:39.771Z,71.39
2023-04-16T07:09:06.209Z,70.56
2023-04-16T07:11:32.687Z,70.89
2023-04-16T07:13:59.175Z,70.17
2023-04-16T07:16:25.861Z,70.28
2023-04-16T07:18:52.368Z,69.63
2023-04-16T07:21:20.242Z,69.46
2023-04-16T07:23:46.704Z,70.94
2023-04-16T07:26:13.214Z,71.77
2023-04-16T07:28:39.670Z,71.32
2023-04-16T07:31:06.125Z,70.81
2023-04-16T07:33:32.592Z,69.36
2023-04-16T07:35:59.059Z,68.20
2023-04-16T07:38:26.913Z,68.57
2023-04-16T07:40:53.352Z,68.28
2023-04-16T07:43:19.769Z,68.74
2023-04-16T07:45:46.272Z,68.19
2023-04-16T07:48:12.793Z,68.61
2023-04-16T07:50:39.237Z,67.75
2023-04-16T07:53:05.714Z,67.38
2023-04-16T07:55:33.559Z,66.58
2023-04-16T07:58:00.052Z,66.19
2023-04-16T08:00:26.493Z,67.14
2023-04-16T08:02:53.205Z,66.37
2023-04-16T08:05:19.870Z,65.50
2023-04-16T08:07:46.503Z,65.00
2023-04-16T08:10:13.079Z,63.76
2023-04-16T08:12:40.911Z,64.13
2023-04-16T08:15:07.801Z,64.93
2023-04-16T08:17:34.323Z,64.64
2023-04-16T08:20:00.890Z,64.86
2023-04-16T08:22:27.515Z,64.58
2023-04-16T08:24:54.016Z,66.92
2023-04-16T08:27:20.568Z,65.62
2023-04-16T08:29:48.514Z,64.59
2023-04-16T08:32:14.969Z,63.99
2023-04-16T08:34:41.669Z,61.92
2023-04-16T08:37:08.100Z,63.98
2023-04-16T08:39:34.640Z,62.91
2023-04-16T08:42:01.073Z,63.07
2023-04-16T08:44:27.927Z,65.29
2023-04-16T08:46:55.916Z,63.94
2023-04-16T08:49:22.381Z,64.12
2023-04-16T08:51:49.891Z,63.81
2023-04-16T08:54:16.349Z,64.02
2023-04-16T08:56:43.303Z,63.58
2023-04-16T08:59:10.037Z,62.17
2023-04-16T09:01:36.721Z,62.61
2023-04-16T09:04:04.999Z,63.00
2023-04-16T09:06:31.611Z,61.58
2023-04-16T09:08:58.057Z,63.51
2023-04-16T09:11:24.520Z,63.86
2023-04-16T09:13:50.930Z,63.39
2023-04-16T09:16:17.399Z,62.13
2023-04-16T09:18:43.895Z,61.08
2023-04-16T09:21:11.702Z,62.02
2023-04-16T09:23:38.294Z,62.02
2023-04-16T09:26:04.833Z,61.07
2023-04-16T09:28:41.126Z,61.27
2023-04-16T09:31:08.103Z,59.75
2023-04-16T09:33:35.041Z,59.38
2023-04-16T09:36:01.762Z,60.26
2023-04-16T09:38:30.023Z,61.12
2023-04-16T09:41:05.732Z,59.02
2023-04-16T09:43:55.434Z,59.12
2023-04-16T09:46:22.042Z,59.37
2023-04-16T09:48:48.561Z,57.49
2023-04-16T09:51:15.036Z,58.53
2023-04-16T09:56:26.576Z,59.39
2023-04-16T09:58:59.809Z,57.08
2023-04-16T10:01:26.324Z,56.37
2023-04-16T10:03:53.705Z,56.18
2023-04-16T10:06:20.737Z,56.05
2023-04-16T10:08:50.235Z,57.04
2023-04-16T10:11:17.476Z,58.30
2023-04-16T10:13:43.969Z,58.44
2023-04-16T10:16:10.707Z,60.46
2023-04-16T10:18:37.481Z,62.14
2023-04-16T10:21:04.189Z,60.83
2023-04-16T10:23:30.677Z,60.99
2023-04-16T10:25:58.959Z,60.66
2023-04-16T10:28:25.471Z,59.43
2023-04-16T10:30:51.971Z,59.34
2023-04-16T10:33:19.798Z,60.28
2023-04-16T10:35:52.330Z,59.39
2023-04-16T10:38:28.748Z,58.60
2023-04-16T10:40:59.968Z,58.53
2023-04-16T10:43:26.428Z,57.79
2023-04-16T10:45:52.910Z,57.20
2023-04-16T10:48:19.400Z,57.28
2023-04-16T10:50:53.622Z,55.92
2023-04-16T10:53:20.811Z,56.11
2023-04-16T10:55:56.917Z,58.15
2023-04-16T10:58:31.608Z,57.52
2023-04-16T11:00:59.273Z,57.40
2023-04-16T11:03:25.980Z,58.21
2023-04-16T11:05:52.560Z,58.31
2023-04-16T11:08:19.025Z,59.13
2023-04-16T11:10:45.476Z,57.18
2023-04-16T11:13:12.314Z,57.06
2023-04-16T11:15:40.152Z,56.46
2023-04-16T11:18:06.845Z,55.05
2023-04-16T11:20:33.366Z,55.21
2023-04-16T11:22:59.821Z,56.16
2023-04-16T11:25:27.071Z,56.52
2023-04-16T11:27:53.606Z,58.79
2023-04-16T11:30:28.126Z,59.55
2023-04-16T11:32:58.355Z,58.60
2023-04-16T11:35:25.081Z,59.04
2023-04-16T11:37:55.346Z,58.97
2023-04-16T11:40:21.819Z,58.66
2023-04-16T11:42:48.232Z,58.15
2023-04-16T11:45:14.689Z,57.63
2023-04-16T11:47:44.596Z,57.91
2023-04-16T11:50:19.544Z,58.68
2023-04-16T11:52:46.577Z,58.88
2023-04-16T11:55:13.054Z,59.08
2023-04-16T11:57:39.555Z,58.61
2023-04-16T12:00:08.598Z,58.37
2023-04-16T12:02:37.325Z,59.76
2023-04-16T12:05:04.139Z,60.69
2023-04-16T12:07:31.964Z,60.20
2023-04-16T12:10:08.057Z,59.80
2023-04-16T12:12:34.876Z,59.13
2023-04-16T12:15:01.463Z,59.03
2023-04-16T12:17:27.982Z,58.66
2023-04-16T12:19:56.106Z,58.85
2023-04-16T12:22:29.251Z,59.18
2023-04-16T12:24:57.555Z,60.73
2023-04-16T12:27:24.066Z,60.02
2023-04-16T12:30:02.478Z,60.25
2023-04-16T12:32:29.057Z,60.65
2023-04-16T12:34:55.505Z,60.48
2023-04-16T12:37:21.990Z,59.54
2023-04-16T12:39:48.439Z,60.13
2023-04-16T12:42:16.357Z,60.89
2023-04-16T12:44:42.806Z,60.74
2023-04-16T12:47:12.398Z,60.12
2023-04-16T12:49:38.847Z,59.93
2023-04-16T12:52:05.429Z,60.25
2023-04-16T12:57:20.055Z,62.17
2023-04-16T12:59:46.672Z,62.38
2023-04-16T13:02:13.425Z,61.55
2023-04-16T13:04:40.100Z,61.54
2023-04-16T13:07:06.671Z,61.50
2023-04-16T13:09:33.124Z,60.98
2023-04-16T13:11:59.592Z,61.32
2023-04-16T13:14:27.396Z,60.16
2023-04-16T13:16:53.942Z,60.38
2023-04-16T13:19:20.526Z,60.49
2023-04-16T13:21:46.979Z,60.17
2023-04-16T13:24:13.477Z,59.32
2023-04-16T13:26:39.933Z,61.24
2023-04-16T13:29:06.376Z,60.61
2023-04-16T13:31:34.233Z,60.79
2023-04-16T13:34:00.676Z,60.75
2023-04-16T13:36:27.657Z,61.50
2023-04-16T13:38:54.371Z,61.91
2023-04-16T13:41:20.875Z,61.02
2023-04-16T13:43:47.427Z,61.20
2023-04-16T13:46:13.916Z,60.80
2023-04-16T13:48:41.759Z,60.86
2023-04-16T13:51:08.362Z,60.78
2023-04-16T13:53:34.862Z,61.19
2023-04-16T13:56:01.302Z,61.04
2023-04-16T13:58:27.775Z,60.76
2023-04-16T14:01:06.412Z,60.94
2023-04-16T14:06:18.870Z,61.22
2023-04-16T14:08:45.329Z,61.88
2023-04-16T14:11:11.817Z,61.70
2023-04-16T14:13:38.217Z,61.92
2023-04-16T14:16:05.088Z,61.63
2023-04-16T14:18:31.562Z,61.31
2023-04-16T14:20:58.022Z,61.12
2023-04-16T14:23:25.868Z,61.34
2023-04-16T14:25:52.334Z,62.52
2023-04-16T14:28:43.250Z,62.58
2023-04-16T14:31:09.799Z,63.89
2023-04-16T14:33:39.297Z,64.38
2023-04-16T14:36:06.226Z,64.07
2023-04-16T14:38:39.880Z,63.90
2023-04-16T14:41:06.345Z,63.70
2023-04-16T14:43:32.773Z,63.07
2023-04-16T14:45:59.309Z,63.20
2023-04-16T14:48:26.035Z,62.66
2023-04-16T14:50:52.670Z,62.97
2023-04-16T14:53:19.156Z,62.62
2023-04-16T14:55:47.054Z,61.86
2023-04-16T14:58:13.463Z,62.01
2023-04-16T15:00:39.969Z,62.16
2023-04-16T15:03:06.633Z,63.01
2023-04-16T15:05:33.235Z,63.28
2023-04-16T15:07:59.691Z,63.29
2023-04-16T15:10:28.963Z,63.24
2023-04-16T15:12:56.772Z,63.83
2023-04-16T15:15:23.215Z,62.42
2023-04-16T15:17:49.980Z,61.99
2023-04-16T15:20:16.438Z,62.50
2023-04-16T15:22:42.872Z,63.17
2023-04-16T15:25:09.640Z,62.55
2023-04-16T15:27:36.077Z,62.71
2023-04-16T15:30:04.296Z,62.13
2023-04-16T15:32:31.038Z,61.60
2023-04-16T15:34:57.619Z,61.34
2023-04-16T15:37:24.095Z,61.45
2023-04-16T15:39:50.580Z,61.81
2023-04-16T15:42:16.996Z,61.86
2023-04-16T15:44:43.459Z,61.75
2023-04-16T15:47:11.287Z,60.96
2023-04-16T15:49:40.486Z,60.93
2023-04-16T15:52:07.104Z,62.13
2023-04-16T15:54:33.547Z,62.58
2023-04-16T15:56:59.965Z,62.63
2023-04-16T15:59:26.456Z,62.79
2023-04-16T16:01:52.964Z,62.33
2023-04-16T16:04:21.015Z,62.99
2023-04-16T16:06:47.456Z,63.33
2023-04-16T16:09:13.927Z,62.76
2023-04-16T16:14:49.813Z,63.14
2023-04-16T16:17:16.295Z,63.71
2023-04-16T16:19:45.842Z,63.63
2023-04-16T16:22:12.836Z,63.62
2023-04-16T16:24:39.337Z,64.04
2023-04-16T16:27:05.792Z,63.81
2023-04-16T16:29:32.225Z,63.56
2023-04-16T16:31:58.761Z,63.30
2023-04-16T16:34:25.286Z,64.18
2023-04-16T16:36:53.108Z,63.59
2023-04-16T16:39:19.510Z,64.40
2023-04-16T16:41:46.012Z,63.99
2023-04-16T16:44:12.432Z,64.22
2023-04-16T16:46:38.903Z,64.88
2023-04-16T16:49:05.361Z,65.81
2023-04-16T16:51:31.987Z,65.25
2023-04-16T16:53:59.789Z,64.23
2023-04-16T16:56:26.218Z,63.45
2023-04-16T16:58:52.657Z,64.41
2023-04-16T17:01:19.129Z,63.88
2023-04-16T17:03:45.666Z,65.18
2023-04-16T17:06:12.181Z,64.94
2023-04-16T17:08:38.670Z,65.34
2023-04-16T17:11:06.492Z,65.45
2023-04-16T17:13:32.963Z,65.67
2023-04-16T17:15:59.419Z,66.27
2023-04-16T17:18:25.885Z,66.99
2023-04-16T17:20:52.368Z,66.26
2023-04-16T17:23:18.799Z,66.07
2023-04-16T17:25:45.237Z,66.10
2023-04-16T17:28:13.136Z,66.60
2023-04-16T17:30:41.925Z,66.14
2023-04-16T17:33:13.507Z,66.29
2023-04-16T17:35:42.597Z,65.66
2023-04-16T17:38:12.181Z,65.49
2023-04-16T17:40:44.413Z,65.39
2023-04-16T17:43:29.782Z,65.00
2023-04-16T17:45:56.252Z,65.42
2023-04-16T17:48:23.008Z,65.44
2023-04-16T17:50:49.904Z,65.60
2023-04-16T17:53:16.340Z,65.40
2023-04-16T17:55:49.693Z,65.68
2023-04-16T17:58:17.541Z,65.77
2023-04-16T18:00:45.619Z,65.63
2023-04-16T18:03:12.180Z,65.58
2023-04-16T18:05:38.832Z,66.25
2023-04-16T18:08:05.481Z,66.07
2023-04-16T18:10:32.059Z,66.19
2023-04-16T18:12:58.508Z,65.72
2023-04-16T18:15:26.451Z,65.67
2023-04-16T18:17:53.153Z,64.85
2023-04-16T18:20:19.701Z,65.92
2023-04-16T18:22:46.422Z,65.95
2023-04-16T18:25:12.909Z,66.10
2023-04-16T18:27:39.377Z,66.13
2023-04-16T18:30:06.452Z,66.13
2023-04-16T18:32:34.328Z,65.79
2023-04-16T18:35:00.823Z,65.68
2023-04-16T18:37:27.292Z,65.37
2023-04-16T18:39:54.024Z,65.49
2023-04-16T18:42:21.169Z,65.26
2023-04-16T18:44:51.216Z,65.01
2023-04-16T18:47:17.796Z,65.81
2023-04-16T18:49:45.834Z,65.59
2023-04-16T18:52:12.303Z,65.50
2023-04-16T18:54:38.753Z,65.41
2023-04-16T18:57:08.216Z,65.36
2023-04-16T18:59:34.657Z,65.44
2023-04-16T19:02:01.164Z,64.89
2023-04-16T19:04:27.693Z,65.16
2023-04-16T19:06:55.719Z,64.96
2023-04-16T19:09:22.181Z,64.46
2023-04-16T19:11:48.625Z,64.43
2023-04-16T19:14:15.103Z,64.68
2023-04-16T19:16:42.013Z,64.75
2023-04-16T19:19:08.682Z,65.21
2023-04-16T19:21:35.321Z,65.18
2023-04-16T19:24:03.222Z,65.62
2023-04-16T19:26:29.750Z,65.32
2023-04-16T19:28:56.204Z,65.25
2023-04-16T19:31:22.807Z,65.30
2023-04-16T19:33:49.404Z,65.23
2023-04-16T19:36:15.829Z,65.36
2023-04-16T19:38:42.701Z,64.81
2023-04-16T19:41:10.565Z,64.75
2023-04-16T19:43:36.991Z,64.68
2023-04-16T19:46:03.449Z,64.58
2023-04-16T19:48:29.950Z,64.44
2023-04-16T19:50:56.369Z,64.55
2023-04-16T19:53:22.854Z,64.48
2023-04-16T19:55:49.304Z,64.17
2023-04-16T19:58:17.201Z,64.26
2023-04-16T20:00:43.993Z,64.50
2023-04-16T20:03:10.638Z,64.46
2023-04-16T20:05:37.106Z,64.93
2023-04-16T20:08:03.693Z,64.75
2023-04-16T20:10:30.151Z,64.69
2023-04-16T20:12:56.595Z,65.25
2023-04-16T20:15:24.564Z,65.38
2023-04-16T20:17:51.060Z,65.28
2023-04-16T20:20:17.625Z,65.39
2023-04-16T20:22:44.107Z,65.31
2023-04-16T20:25:10.679Z,65.22
2023-04-16T20:27:37.131Z,64.77
2023-04-16T20:30:03.961Z,64.91
2023-04-16T20:32:31.820Z,65.07
2023-04-16T20:34:58.324Z,65.47
2023-04-16T20:37:24.805Z,66.20
2023-04-16T20:39:51.456Z,65.97
2023-04-16T20:42:17.868Z,66.72
2023-04-16T20:44:44.280Z,66.73
2023-04-16T20:47:11.334Z,66.97
2023-04-16T20:49:39.185Z,66.92
2023-04-16T20:52:05.655Z,67.21
2023-04-16T20:54:32.086Z,66.80
2023-04-16T20:56:58.767Z,66.63
2023-04-16T20:59:25.200Z,67.24
2023-04-16T21:01:51.786Z,67.15
2023-04-16T21:04:18.381Z,66.58
2023-04-16T21:06:48.597Z,67.07
2023-04-16T21:09:15.015Z,66.68
2023-04-16T21:11:44.237Z,67.55
2023-04-16T21:14:10.704Z,67.67
2023-04-16T21:16:37.210Z,68.00
2023-04-16T21:19:03.798Z,67.71
2023-04-16T21:21:30.309Z,67.30
2023-04-16T21:23:58.126Z,67.50
2023-04-16T21:26:24.559Z,68.27
2023-04-16T21:28:51.588Z,68.35
2023-04-16T21:31:18.779Z,68.32
2023-04-16T21:33:45.226Z,68.48
2023-04-16T21:36:11.676Z,68.68
2023-04-16T21:38:38.127Z,68.42
2023-04-16T21:41:05.928Z,68.65
2023-04-16T21:43:32.440Z,68.10
2023-04-16T21:45:58.955Z,68.08
2023-04-16T21:48:25.505Z,67.57
2023-04-16T21:50:55.416Z,68.12
2023-04-16T21:53:21.869Z,68.49
2023-04-16T21:55:48.325Z,68.63
2023-04-16T21:58:16.160Z,68.49
2023-04-16T22:00:42.800Z,68.44
2023-04-16T22:03:09.391Z,68.41
2023-04-16T22:05:36.011Z,68.12
2023-04-16T22:08:10.874Z,66.84
2023-04-16T22:10:47.890Z,67.22
2023-04-16T22:13:15.765Z,67.65
2023-04-16T22:15:42.229Z,67.32
2023-04-16T22:18:08.699Z,67.45
2023-04-16T22:20:35.665Z,67.36
2023-04-16T22:23:02.167Z,67.32
2023-04-16T22:25:28.673Z,67.17
2023-04-16T22:27:55.198Z,67.44
2023-04-16T22:30:23.054Z,67.20
2023-04-16T22:32:49.560Z,66.92
2023-04-16T22:35:16.147Z,67.41
2023-04-16T22:37:42.570Z,67.67
2023-04-16T22:40:09.418Z,67.70
2023-04-16T22:42:35.899Z,67.92
2023-04-16T22:45:02.454Z,67.98
2023-04-16T22:47:30.265Z,66.89
2023-04-16T22:49:56.744Z,67.02
2023-04-16T22:52:23.259Z,67.84
2023-04-16T22:54:49.690Z,67.65
2023-04-16T22:57:16.137Z,67.19
2023-04-16T22:59:42.658Z,67.48
2023-04-16T23:02:09.116Z,67.15
2023-04-16T23:04:37.036Z,67.59
2023-04-16T23:07:03.510Z,67.05
2023-04-16T23:09:29.955Z,66.98
2023-04-16T23:11:56.420Z,66.88
2023-04-16T23:14:22.870Z,67.28
2023-04-16T23:16:49.326Z,67.63
2023-04-16T23:19:15.893Z,67.87
2023-04-16T23:21:43.723Z,68.57
2023-04-16T23:24:10.187Z,68.70
2023-04-16T23:26:36.866Z,68.72
2023-04-16T23:29:03.363Z,68.62
2023-04-16T23:31:29.842Z,68.84
2023-04-16T23:33:56.477Z,68.51
2023-04-16T23:36:22.939Z,68.56
2023-04-16T23:38:50.737Z,68.40
2023-04-16T23:41:17.189Z,69.05
2023-04-16T23:43:43.665Z,68.52
2023-04-16T23:46:10.132Z,68.40
2023-04-16T23:48:36.586Z,68.25
2023-04-16T23:51:03.218Z,68.33
2023-04-16T23:53:29.698Z,67.60
2023-04-16T23:55:57.484Z,68.22
2023-04-16T23:58:23.920Z,68.50
